Time;durP1;ratioP1;P1;durP2;ratioP2;P2;SDS_P1;SDS_P2;PMS_P1;PMS_P2;Temp;Humidity;BMP_temperature;BMP_pressure;BME280_temperature;BME280_humidity;BME280_pressure;Samples;Min_cycle;Max_cycle;Signal;HPM_P1;HPM_P2
2022/02/21 00:01:28;;;;;;;3.23;1.20;;;10.20;99.90;;;;;;5010203;28;20524;-74
2022/02/21 00:03:55;;;;;;;3.50;0.93;;;10.20;99.90;;;;;;5009882;28;20528;-73
2022/02/21 00:06:22;;;;;;;6.70;1.20;;;10.30;99.90;;;;;;5009576;28;20521;-74
2022/02/21 00:08:49;;;;;;;3.80;1.10;;;10.30;99.90;;;;;;5009762;28;20450;-74
2022/02/21 00:11:15;;;;;;;3.30;1.10;;;10.30;99.90;;;;;;5009806;28;20573;-74
2022/02/21 00:13:44;;;;;;;3.90;1.40;;;10.40;99.90;;;;;;5009760;28;20534;-73
2022/02/21 00:16:10;;;;;;;3.10;1.20;;;10.40;99.90;;;;;;5007591;28;20462;-73
2022/02/21 00:18:37;;;;;;;3.50;1.20;;;10.50;99.90;;;;;;5010250;28;20441;-74
2022/02/21 00:21:04;;;;;;;3.77;1.30;;;10.40;99.90;;;;;;5010054;28;20829;-74
2022/02/21 00:23:31;;;;;;;3.23;1.00;;;10.50;99.90;;;;;;5009915;28;20461;-73
2022/02/21 00:25:58;;;;;;;4.90;1.83;;;10.40;99.90;;;;;;5009351;28;20550;-74
2022/02/21 00:28:25;;;;;;;2.93;0.90;;;10.50;99.90;;;;;;5009652;28;20449;-74
2022/02/21 00:30:53;;;;;;;2.80;0.97;;;10.50;99.90;;;;;;5009731;28;20546;-74
2022/02/21 00:33:20;;;;;;;3.67;1.03;;;10.40;99.90;;;;;;5009430;28;20485;-74
2022/02/21 00:35:48;;;;;;;2.70;0.90;;;10.50;99.90;;;;;;5009085;28;20469;-73
2022/02/21 00:38:15;;;;;;;2.10;1.00;;;10.50;99.90;;;;;;5009564;28;21001;-73
2022/02/21 00:40:42;;;;;;;3.27;0.90;;;10.50;99.90;;;;;;5009461;28;20476;-74
2022/02/21 00:43:08;;;;;;;2.20;1.00;;;10.40;99.90;;;;;;5009792;28;20438;-73
2022/02/21 00:45:35;;;;;;;2.53;0.90;;;10.40;99.90;;;;;;5009430;28;20469;-74
2022/02/21 00:48:04;;;;;;;2.10;0.83;;;10.40;99.90;;;;;;5012049;28;20456;-74
2022/02/21 00:50:31;;;;;;;4.50;1.30;;;10.30;99.90;;;;;;5013232;28;20541;-74
2022/02/21 00:52:57;;;;;;;2.90;1.27;;;10.20;99.90;;;;;;5013305;28;20480;-74
2022/02/21 00:55:24;;;;;;;5.77;1.40;;;10.20;99.90;;;;;;5012625;28;20600;-73
2022/02/21 00:57:51;;;;;;;9.90;3.20;;;10.10;99.90;;;;;;5013039;28;20935;-73
2022/02/21 01:00:19;;;;;;;2.40;0.97;;;10.00;99.90;;;;;;5012843;28;20540;-74
2022/02/21 01:02:46;;;;;;;2.40;1.10;;;9.90;99.90;;;;;;5012967;28;20450;-74
2022/02/21 01:05:14;;;;;;;4.53;1.43;;;9.80;99.90;;;;;;5012365;28;20548;-74
2022/02/21 01:07:41;;;;;;;6.00;1.80;;;9.90;99.90;;;;;;5012578;28;20462;-74
2022/02/21 01:10:09;;;;;;;3.30;1.10;;;9.80;99.90;;;;;;5012603;28;20452;-74
2022/02/21 01:12:36;;;;;;;4.23;1.40;;;9.90;99.90;;;;;;5012887;28;20489;-74
2022/02/21 01:15:04;;;;;;;7.50;1.47;;;9.90;99.90;;;;;;5012357;28;20470;-74
2022/02/21 01:17:30;;;;;;;2.93;1.10;;;10.00;99.90;;;;;;5012586;28;20442;-74
2022/02/21 01:19:58;;;;;;;3.37;1.57;;;10.00;99.90;;;;;;5012624;28;20450;-74
2022/02/21 01:22:26;;;;;;;4.03;2.33;;;10.00;99.90;;;;;;5012492;28;20496;-74
2022/02/21 01:24:53;;;;;;;6.33;1.30;;;9.90;99.90;;;;;;5012282;28;20476;-74
2022/02/21 01:27:20;;;;;;;4.80;1.40;;;9.90;99.90;;;;;;5012462;28;20460;-74
2022/02/21 01:29:47;;;;;;;5.50;1.17;;;10.00;99.90;;;;;;5012534;28;20456;-74
2022/02/21 01:32:14;;;;;;;3.47;1.07;;;10.00;99.90;;;;;;5012278;28;20477;-74
2022/02/21 01:34:41;;;;;;;2.43;0.90;;;10.00;99.90;;;;;;5011975;28;20465;-74
2022/02/21 01:37:08;;;;;;;3.90;1.20;;;10.00;99.90;;;;;;5012169;28;20453;-73
2022/02/21 01:39:36;;;;;;;5.87;1.40;;;10.10;99.90;;;;;;5012126;28;20460;-74
2022/02/21 01:42:04;;;;;;;3.63;1.50;;;10.10;99.90;;;;;;5012217;28;20469;-74
2022/02/21 01:44:36;;;;;;;5.03;1.60;;;10.10;99.90;;;;;;5011760;28;20450;-74
2022/02/21 01:47:04;;;;;;;2.20;1.20;;;10.10;99.90;;;;;;5011940;28;20450;-74
2022/02/21 01:49:31;;;;;;;3.37;1.20;;;10.00;99.90;;;;;;5011901;28;20449;-74
2022/02/21 01:51:58;;;;;;;4.37;1.17;;;10.00;99.90;;;;;;5012026;28;20478;-74
2022/02/21 01:54:25;;;;;;;3.30;1.40;;;10.10;99.90;;;;;;5011621;28;21057;-74
2022/02/21 01:56:54;;;;;;;2.80;0.87;;;10.10;99.90;;;;;;5011967;28;20441;-74
2022/02/21 01:59:21;;;;;;;3.37;1.50;;;10.10;99.90;;;;;;5010823;28;20529;-74
2022/02/21 02:01:49;;;;;;;4.60;1.10;;;10.10;99.90;;;;;;5011777;28;20446;-74
2022/02/21 02:04:15;;;;;;;4.80;1.47;;;10.00;99.90;;;;;;5011460;28;20452;-74
2022/02/21 02:06:43;;;;;;;3.60;1.20;;;10.10;99.90;;;;;;5011465;28;21061;-74
2022/02/21 02:09:10;;;;;;;4.20;1.00;;;10.10;99.90;;;;;;5011863;28;20492;-74
2022/02/21 02:11:38;;;;;;;6.67;2.10;;;10.10;99.90;;;;;;5011651;28;20450;-74
2022/02/21 02:14:06;;;;;;;4.13;1.20;;;10.10;99.90;;;;;;5010814;28;20490;-74
2022/02/21 02:16:33;;;;;;;3.20;1.03;;;10.00;99.90;;;;;;5011673;28;20481;-74
2022/02/21 02:19:00;;;;;;;3.40;0.90;;;10.00;99.90;;;;;;5011608;28;20450;-73
2022/02/21 02:21:32;;;;;;;2.77;0.80;;;10.00;99.90;;;;;;5011555;28;20488;-74
2022/02/21 02:24:00;;;;;;;3.10;1.37;;;10.00;99.90;;;;;;5011284;28;20554;-74
2022/02/21 02:26:27;;;;;;;3.30;1.00;;;10.00;99.90;;;;;;5011038;28;20492;-74
2022/02/21 02:28:55;;;;;;;1.83;0.77;;;10.00;99.90;;;;;;5011187;28;20975;-74
2022/02/21 02:31:22;;;;;;;2.20;1.27;;;10.00;99.90;;;;;;5011177;28;20446;-74
2022/02/21 02:33:49;;;;;;;1.80;0.70;;;9.90;99.90;;;;;;5010983;28;20481;-74
2022/02/21 02:36:16;;;;;;;2.20;0.93;;;9.90;99.90;;;;;;5010743;28;20997;-74
2022/02/21 02:38:43;;;;;;;1.80;0.70;;;9.90;99.90;;;;;;5010890;28;20549;-73
2022/02/21 02:41:12;;;;;;;2.37;1.13;;;9.80;99.90;;;;;;5011242;28;20453;-73
2022/02/21 02:43:40;;;;;;;2.93;1.00;;;9.80;99.90;;;;;;5011179;28;20437;-72
2022/02/21 02:46:08;;;;;;;3.30;1.13;;;9.90;99.90;;;;;;5010559;28;20466;-74
2022/02/21 02:48:35;;;;;;;2.90;1.00;;;9.80;99.90;;;;;;5010783;28;20966;-74
2022/02/21 02:51:02;;;;;;;2.50;0.90;;;9.70;99.90;;;;;;5010767;28;20847;-74
2022/02/21 02:53:29;;;;;;;2.77;1.00;;;9.60;99.90;;;;;;5010621;28;21040;-74
2022/02/21 02:55:56;;;;;;;3.60;0.87;;;9.50;99.90;;;;;;5010703;28;20472;-74
2022/02/21 02:58:25;;;;;;;2.20;0.90;;;9.40;99.90;;;;;;5010969;28;20536;-74
2022/02/21 03:00:52;;;;;;;3.60;1.10;;;9.30;99.90;;;;;;5010714;28;20457;-74
2022/02/21 03:03:19;;;;;;;3.23;1.00;;;9.20;99.90;;;;;;5010638;28;20454;-74
2022/02/21 03:05:46;;;;;;;3.47;1.30;;;9.30;99.90;;;;;;5009969;28;20903;-72
2022/02/21 03:08:13;;;;;;;2.00;1.00;;;9.20;99.90;;;;;;5010659;28;20445;-74
2022/02/21 03:10:39;;;;;;;2.67;1.00;;;9.20;99.90;;;;;;5010244;28;20537;-72
2022/02/21 03:13:06;;;;;;;2.90;0.80;;;9.20;99.90;;;;;;5010516;28;20548;-72
2022/02/21 03:15:34;;;;;;;4.73;1.00;;;9.20;99.90;;;;;;5009999;28;20485;-72
2022/02/21 03:18:01;;;;;;;4.63;1.73;;;9.10;99.90;;;;;;5010380;28;20454;-75
2022/02/21 03:20:28;;;;;;;2.37;0.80;;;9.20;99.90;;;;;;5010285;28;20530;-72
2022/02/21 03:22:55;;;;;;;2.63;0.80;;;9.20;99.90;;;;;;5010485;28;20453;-72
2022/02/21 03:25:22;;;;;;;2.20;0.80;;;9.20;99.90;;;;;;5010286;28;20548;-73
2022/02/21 03:27:49;;;;;;;2.03;0.90;;;9.20;99.90;;;;;;5010403;28;20556;-73
2022/02/21 03:30:15;;;;;;;3.20;1.03;;;9.10;99.90;;;;;;5010211;28;20460;-73
2022/02/21 03:32:44;;;;;;;2.57;0.80;;;9.20;99.90;;;;;;5010121;28;20489;-72
2022/02/21 03:35:11;;;;;;;3.77;0.80;;;9.20;99.90;;;;;;5009934;28;20474;-73
2022/02/21 03:37:38;;;;;;;6.47;1.47;;;9.10;99.90;;;;;;5010125;28;20446;-72
2022/02/21 03:40:07;;;;;;;3.07;1.00;;;8.10;99.90;;;;;;5010327;28;20446;-74
2022/02/21 03:42:34;;;;;;;3.60;0.90;;;6.80;99.90;;;;;;5010112;28;20449;-73
2022/02/21 03:45:02;;;;;;;1.97;0.70;;;5.80;99.90;;;;;;5009943;28;20505;-73
2022/02/21 03:47:28;;;;;;;4.60;1.43;;;5.30;99.90;;;;;;5010014;28;20441;-75
2022/02/21 03:49:57;;;;;;;5.47;1.87;;;5.10;99.90;;;;;;5010383;28;20448;-74
2022/02/21 03:52:23;;;;;;;4.90;1.10;;;5.10;99.90;;;;;;5010153;28;20560;-74
2022/02/21 03:54:50;;;;;;;3.20;0.80;;;5.10;99.90;;;;;;5009930;28;21062;-74
2022/02/21 03:57:17;;;;;;;4.07;1.10;;;5.00;99.90;;;;;;5010304;28;20438;-74
2022/02/21 03:59:44;;;;;;;2.23;1.10;;;5.00;99.90;;;;;;5010062;28;20457;-73
2022/02/21 04:02:11;;;;;;;3.97;1.00;;;5.00;99.90;;;;;;5009978;28;20529;-73
2022/02/21 04:04:38;;;;;;;4.10;1.10;;;5.00;99.90;;;;;;5010013;28;20470;-74
2022/02/21 04:07:06;;;;;;;2.83;1.30;;;4.90;99.90;;;;;;5009932;28;20462;-74
2022/02/21 04:09:33;;;;;;;6.57;1.10;;;4.90;99.90;;;;;;5010056;28;20849;-75
2022/02/21 04:12:00;;;;;;;3.27;1.13;;;4.90;99.90;;;;;;5009991;28;20544;-75
2022/02/21 04:14:27;;;;;;;6.30;1.40;;;4.80;99.90;;;;;;5009422;28;20481;-74
2022/02/21 04:16:54;;;;;;;3.50;1.07;;;4.80;99.90;;;;;;5009961;28;20540;-74
2022/02/21 04:19:21;;;;;;;4.33;1.20;;;4.80;99.90;;;;;;5010014;28;20449;-74
2022/02/21 04:21:48;;;;;;;4.60;1.10;;;4.70;99.90;;;;;;5010637;28;20446;-72
2022/02/21 04:24:16;;;;;;;4.00;1.20;;;4.70;99.90;;;;;;5013344;28;20450;-72
2022/02/21 04:26:43;;;;;;;3.47;1.33;;;4.80;99.90;;;;;;5013665;28;20464;-73
2022/02/21 04:29:10;;;;;;;4.57;1.80;;;4.80;99.90;;;;;;5013576;28;20968;-72
2022/02/21 04:31:37;;;;;;;4.13;1.37;;;4.80;99.90;;;;;;5013766;28;20449;-74
2022/02/21 04:34:03;;;;;;;6.23;1.53;;;4.80;99.90;;;;;;5013274;28;20535;-72
2022/02/21 04:36:34;;;;;;;5.07;1.37;;;4.80;99.90;;;;;;5013376;28;20483;-72
2022/02/21 04:39:00;;;;;;;6.10;1.27;;;4.90;99.90;;;;;;5013527;28;20544;-73
2022/02/21 04:41:29;;;;;;;2.40;1.10;;;4.90;99.90;;;;;;5013329;28;20845;-72
2022/02/21 04:43:55;;;;;;;3.70;1.23;;;4.90;99.90;;;;;;5013127;28;20537;-72
2022/02/21 04:46:22;;;;;;;10.37;2.37;;;4.90;99.90;;;;;;5013223;28;20469;-72
2022/02/21 04:48:49;;;;;;;5.97;2.20;;;4.90;99.90;;;;;;5013348;28;20449;-73
2022/02/21 04:51:16;;;;;;;5.63;1.60;;;4.90;99.90;;;;;;5013248;28;20458;-72
2022/02/21 04:53:43;;;;;;;3.43;1.43;;;4.90;99.90;;;;;;5013149;28;20481;-72
2022/02/21 04:56:10;;;;;;;5.87;1.30;;;4.90;99.90;;;;;;5012644;28;20556;-72
2022/02/21 04:58:38;;;;;;;6.13;1.73;;;4.90;99.90;;;;;;5013236;28;20446;-72
2022/02/21 05:01:05;;;;;;;3.63;1.50;;;4.90;99.90;;;;;;5012884;28;20823;-72
2022/02/21 05:03:32;;;;;;;7.10;2.43;;;5.00;99.90;;;;;;5012913;28;20537;-73
2022/02/21 05:05:59;;;;;;;5.03;1.90;;;5.00;99.90;;;;;;5012216;28;20858;-74
2022/02/21 05:08:26;;;;;;;5.93;1.90;;;5.00;99.90;;;;;;5012746;28;20449;-73
2022/02/21 05:10:54;;;;;;;4.43;1.60;;;5.00;99.90;;;;;;5012376;28;20974;-74
2022/02/21 05:13:21;;;;;;;7.73;1.83;;;5.10;99.90;;;;;;5012708;28;20503;-74
2022/02/21 05:15:49;;;;;;;13.67;2.33;;;5.10;99.90;;;;;;5012188;28;20549;-74
2022/02/21 05:18:16;;;;;;;5.87;2.03;;;5.10;99.90;;;;;;5012677;28;20442;-74
2022/02/21 05:20:43;;;;;;;10.20;2.30;;;5.10;99.90;;;;;;5012382;28;20532;-75
2022/02/21 05:23:10;;;;;;;8.07;2.27;;;5.10;99.90;;;;;;5012372;28;20446;-75
2022/02/21 05:25:37;;;;;;;5.33;1.80;;;5.10;99.90;;;;;;5011853;28;20553;-74
2022/02/21 05:28:04;;;;;;;6.73;2.20;;;5.10;99.90;;;;;;5012445;28;20450;-74
2022/02/21 05:30:31;;;;;;;5.27;1.53;;;5.20;99.90;;;;;;5012254;28;20536;-74
2022/02/21 05:32:59;;;;;;;8.00;1.60;;;5.20;99.90;;;;;;5012285;28;20481;-75
2022/02/21 05:35:26;;;;;;;4.67;2.20;;;5.20;99.90;;;;;;5011920;28;20470;-74
2022/02/21 05:37:53;;;;;;;5.43;1.90;;;5.20;99.90;;;;;;5012121;28;20832;-75
2022/02/21 05:40:19;;;;;;;8.83;2.33;;;5.30;99.90;;;;;;5012203;28;20456;-75
2022/02/21 05:42:47;;;;;;;18.10;2.57;;;5.30;99.90;;;;;;5013089;28;20454;-74
2022/02/21 05:45:14;;;;;;;4.73;2.33;;;5.40;99.90;;;;;;5012098;28;20549;-75
2022/02/21 05:47:41;;;;;;;9.13;2.07;;;5.40;99.90;;;;;;5012506;28;20453;-75
2022/02/21 05:50:09;;;;;;;4.13;1.80;;;5.40;99.90;;;;;;5012076;28;20541;-74
2022/02/21 05:52:36;;;;;;;9.00;3.03;;;5.40;99.90;;;;;;5011694;28;20488;-74
2022/02/21 05:55:03;;;;;;;7.60;3.37;;;5.40;99.90;;;;;;5011582;28;20482;-73
2022/02/21 05:57:30;;;;;;;15.10;4.97;;;5.40;99.90;;;;;;5011962;28;20438;-73
2022/02/21 05:59:59;;;;;;;8.90;1.93;;;5.40;99.90;;;;;;5012201;28;20540;-73
2022/02/21 06:02:26;;;;;;;6.27;2.07;;;5.40;99.90;;;;;;5011891;28;20948;-73
2022/02/21 06:04:54;;;;;;;11.93;2.93;;;5.50;99.90;;;;;;5011275;28;20474;-74
2022/02/21 06:07:22;;;;;;;7.03;1.97;;;5.50;99.90;;;;;;5011479;28;20873;-74
2022/02/21 06:09:49;;;;;;;6.23;1.67;;;5.50;99.90;;;;;;5011761;28;20450;-74
2022/02/21 06:12:16;;;;;;;6.60;2.10;;;5.50;99.90;;;;;;5011832;28;20462;-74
2022/02/21 06:14:43;;;;;;;4.57;1.60;;;5.50;99.90;;;;;;5008703;28;20497;-74
2022/02/21 06:17:10;;;;;;;5.13;2.10;;;5.50;99.90;;;;;;5012095;28;20955;-74
2022/02/21 06:19:37;;;;;;;14.90;3.00;;;5.50;99.90;;;;;;5008327;28;20987;-75
2022/02/21 06:22:05;;;;;;;5.50;2.13;;;5.50;99.90;;;;;;5009714;28;20452;-74
2022/02/21 06:24:34;;;;;;;9.00;2.33;;;5.50;99.90;;;;;;5008354;28;20454;-75
2022/02/21 06:27:01;;;;;;;8.30;2.50;;;5.50;99.90;;;;;;5011375;28;20450;-74
2022/02/21 06:29:28;;;;;;;9.50;2.70;;;5.50;99.90;;;;;;5011191;28;20450;-74
2022/02/21 06:31:55;;;;;;;4.77;2.33;;;5.50;99.90;;;;;;5011044;28;20450;-75
2022/02/21 06:34:22;;;;;;;8.73;3.87;;;5.50;99.90;;;;;;5010901;28;20866;-74
2022/02/21 06:36:49;;;;;;;9.50;2.50;;;5.50;99.90;;;;;;5011150;28;21150;-74
2022/02/21 06:39:19;;;;;;;9.67;2.87;;;5.50;99.90;;;;;;5001496;28;20446;-74
2022/02/21 06:41:47;;;;;;;8.70;2.53;;;5.50;99.90;;;;;;5011143;28;20446;-74
2022/02/21 06:44:14;;;;;;;10.70;3.07;;;5.50;99.90;;;;;;5010572;28;20446;-73
2022/02/21 06:46:41;;;;;;;5.57;2.00;;;5.50;99.90;;;;;;5010063;28;20520;-73
2022/02/21 06:49:08;;;;;;;5.90;1.87;;;5.50;99.90;;;;;;5003358;28;20445;-72
2022/02/21 06:51:36;;;;;;;8.00;2.30;;;5.40;99.90;;;;;;4999107;28;20533;-70
2022/02/21 06:54:03;;;;;;;6.77;2.33;;;5.40;99.90;;;;;;5000713;28;20999;-72
2022/02/21 06:56:29;;;;;;;6.07;2.53;;;5.50;99.90;;;;;;5009139;28;20469;-74
2022/02/21 06:58:58;;;;;;;7.90;4.23;;;5.40;99.90;;;;;;5008139;28;20449;-72
2022/02/21 07:01:25;;;;;;;7.60;2.60;;;5.40;99.90;;;;;;4990558;28;21019;-73
2022/02/21 07:03:51;;;;;;;6.20;2.60;;;5.40;99.90;;;;;;4990603;28;20443;-74
2022/02/21 07:06:18;;;;;;;11.10;3.20;;;5.40;99.90;;;;;;4989385;28;20478;-70
2022/02/21 07:08:45;;;;;;;9.87;2.10;;;5.40;99.90;;;;;;4990277;28;20449;-70
2022/02/21 07:11:12;;;;;;;9.50;2.40;;;5.40;99.90;;;;;;4990860;28;20505;-72
2022/02/21 07:13:39;;;;;;;8.33;2.30;;;5.40;99.90;;;;;;4993509;28;20492;-74
2022/02/21 07:16:07;;;;;;;9.43;2.00;;;5.40;99.90;;;;;;5010109;28;20466;-77
2022/02/21 07:18:37;;;;;;;4.97;2.20;;;5.30;99.90;;;;;;5010252;28;20536;-72
2022/02/21 07:21:04;;;;;;;6.67;2.47;;;5.20;99.90;;;;;;5010522;28;21026;-71
2022/02/21 07:23:31;;;;;;;5.60;2.20;;;5.20;99.90;;;;;;5010411;28;20450;-75
2022/02/21 07:25:58;;;;;;;10.10;3.53;;;5.10;99.90;;;;;;5010021;28;20477;-73
2022/02/21 07:28:25;;;;;;;6.80;2.10;;;5.20;99.90;;;;;;5010349;28;20464;-71
2022/02/21 07:30:52;;;;;;;6.13;2.27;;;5.20;99.90;;;;;;5010794;28;20457;-71
2022/02/21 07:33:20;;;;;;;9.43;2.97;;;5.10;99.90;;;;;;5010535;28;20450;-71
2022/02/21 07:35:47;;;;;;;10.33;2.70;;;5.10;99.90;;;;;;5010248;28;20454;-71
2022/02/21 07:38:14;;;;;;;10.70;2.70;;;5.20;99.90;;;;;;5010540;28;21013;-70
2022/02/21 07:40:41;;;;;;;9.60;2.60;;;5.20;99.90;;;;;;5010356;28;20447;-71
2022/02/21 07:43:08;;;;;;;8.97;3.50;;;5.20;99.90;;;;;;5010648;28;20541;-71
2022/02/21 07:45:35;;;;;;;9.43;2.40;;;5.20;99.90;;;;;;5009791;28;20478;-72
2022/02/21 07:48:02;;;;;;;11.93;3.10;;;5.30;99.90;;;;;;5010249;28;20955;-72
2022/02/21 07:50:30;;;;;;;7.27;2.57;;;5.30;99.90;;;;;;5010167;28;20454;-71
2022/02/21 07:52:58;;;;;;;7.60;2.50;;;5.30;99.90;;;;;;5010019;28;20445;-72
2022/02/21 07:55:25;;;;;;;6.73;2.27;;;5.30;99.90;;;;;;5009556;28;20492;-71
2022/02/21 07:57:52;;;;;;;10.70;3.27;;;5.40;99.90;;;;;;5014301;28;20794;-71
2022/02/21 08:00:20;;;;;;;12.73;2.80;;;5.50;99.90;;;;;;5014364;28;20532;-71
2022/02/21 08:02:47;;;;;;;15.63;3.30;;;5.50;99.90;;;;;;5014158;28;20529;-71
2022/02/21 08:05:14;;;;;;;8.90;2.33;;;5.50;99.90;;;;;;5013617;28;20466;-71
2022/02/21 08:07:42;;;;;;;12.63;2.63;;;5.60;99.90;;;;;;5013859;28;20489;-71
2022/02/21 08:10:10;;;;;;;10.33;2.23;;;5.60;99.90;;;;;;5014159;28;20511;-71
2022/02/21 08:12:37;;;;;;;12.73;3.20;;;5.70;99.90;;;;;;5014211;28;20453;-71
2022/02/21 08:15:04;;;;;;;10.10;2.93;;;5.70;99.90;;;;;;5013314;28;20492;-71
2022/02/21 08:17:38;;;;;;;11.43;2.73;;;5.80;99.90;;;;;;5013916;28;20448;-73
2022/02/21 08:20:06;;;;;;;11.80;2.70;;;5.90;99.90;;;;;;5013752;28;20456;-71
2022/02/21 08:22:33;;;;;;;10.40;3.27;;;6.00;99.90;;;;;;5013478;28;20834;-71
2022/02/21 08:25:01;;;;;;;7.30;2.17;;;6.10;99.90;;;;;;5013204;28;21076;-72
2022/02/21 08:27:28;;;;;;;12.07;4.13;;;6.30;99.90;;;;;;5013484;28;20453;-72
2022/02/21 08:29:54;;;;;;;10.23;2.10;;;6.40;99.90;;;;;;5013925;28;20522;-73
2022/02/21 08:32:21;;;;;;;12.33;2.77;;;6.40;99.90;;;;;;5013798;28;20496;-71
2022/02/21 08:34:48;;;;;;;10.00;3.60;;;6.50;99.90;;;;;;5012861;28;20485;-71
2022/02/21 08:37:15;;;;;;;10.33;3.03;;;6.50;99.90;;;;;;5013575;28;20449;-72
2022/02/21 08:39:42;;;;;;;8.90;2.67;;;6.50;99.90;;;;;;5013570;28;20457;-72
2022/02/21 08:42:10;;;;;;;14.67;3.40;;;6.60;99.90;;;;;;5013499;28;20939;-71
2022/02/21 08:44:37;;;;;;;7.73;2.73;;;6.70;99.90;;;;;;5013048;28;20441;-71
2022/02/21 08:47:04;;;;;;;14.87;3.47;;;6.70;99.90;;;;;;5013205;28;20449;-71
2022/02/21 08:49:31;;;;;;;7.77;3.20;;;6.80;99.90;;;;;;5013145;28;20452;-71
2022/02/21 08:51:58;;;;;;;9.83;2.90;;;6.80;99.90;;;;;;5013413;28;20448;-71
2022/02/21 08:54:25;;;;;;;10.60;3.30;;;7.00;99.90;;;;;;5012654;28;20486;-71
2022/02/21 08:56:52;;;;;;;8.90;2.80;;;7.20;99.90;;;;;;5013204;28;20480;-71
2022/02/21 08:59:20;;;;;;;8.93;3.10;;;7.30;99.90;;;;;;5012988;28;20458;-71
2022/02/21 09:01:47;;;;;;;14.47;3.20;;;7.40;99.90;;;;;;5013044;28;20867;-71
2022/02/21 09:04:15;;;;;;;12.03;3.00;;;7.30;99.90;;;;;;5012735;28;20453;-73
2022/02/21 09:06:41;;;;;;;6.73;2.50;;;7.20;99.90;;;;;;5012820;28;20478;-71
2022/02/21 09:09:08;;;;;;;12.00;2.40;;;7.10;99.90;;;;;;5012350;28;20532;-73
2022/02/21 09:11:35;;;;;;;12.50;3.23;;;7.00;99.90;;;;;;5012859;28;20452;-71
2022/02/21 09:14:02;;;;;;;6.83;2.77;;;7.10;99.90;;;;;;5012692;28;20852;-71
2022/02/21 09:16:31;;;;;;;9.73;2.60;;;7.00;99.90;;;;;;5012776;28;20495;-71
2022/02/21 09:18:58;;;;;;;8.67;3.63;;;7.10;99.90;;;;;;5013331;28;20529;-71
2022/02/21 09:21:24;;;;;;;10.87;3.90;;;7.10;99.90;;;;;;5013195;28;20486;-71
2022/02/21 09:23:51;;;;;;;8.87;2.90;;;7.20;99.90;;;;;;5013181;28;20456;-72
2022/02/21 09:26:19;;;;;;;7.73;2.63;;;7.20;99.90;;;;;;5012720;28;20476;-70
2022/02/21 09:28:45;;;;;;;10.90;3.30;;;7.20;99.90;;;;;;5012772;28;20450;-71
2022/02/21 09:31:12;;;;;;;7.97;2.00;;;7.30;99.90;;;;;;5012551;28;20460;-70
2022/02/21 09:33:40;;;;;;;8.57;2.80;;;7.30;99.90;;;;;;5012453;28;20951;-71
2022/02/21 09:36:07;;;;;;;6.00;2.47;;;7.30;99.90;;;;;;5011931;28;20523;-70
2022/02/21 09:38:34;;;;;;;5.50;2.03;;;7.30;99.90;;;;;;5012214;28;20457;-71
2022/02/21 09:41:03;;;;;;;9.17;2.50;;;7.20;99.90;;;;;;5012261;28;20883;-70
2022/02/21 09:43:30;;;;;;;9.17;3.40;;;7.10;99.90;;;;;;5012015;28;20461;-71
2022/02/21 09:45:59;;;;;;;13.10;3.20;;;7.20;99.90;;;;;;5011641;28;20488;-70
2022/02/21 09:48:27;;;;;;;5.60;1.87;;;7.10;99.90;;;;;;5012120;28;21170;-70
2022/02/21 09:50:59;;;;;;;7.13;2.30;;;7.00;99.90;;;;;;5012297;28;20450;-72
2022/02/21 09:53:27;;;;;;;11.43;2.60;;;7.00;99.90;;;;;;5012284;28;20500;-70
2022/02/21 09:55:55;;;;;;;5.87;2.20;;;7.20;99.90;;;;;;5011493;28;20485;-69
2022/02/21 09:58:22;;;;;;;9.20;2.70;;;7.40;99.90;;;;;;5011772;28;20457;-70
2022/02/21 10:00:49;;;;;;;8.73;2.67;;;7.60;99.90;;;;;;5011975;28;20456;-71
2022/02/21 10:03:19;;;;;;;6.77;1.97;;;7.70;99.90;;;;;;5011828;28;20465;-70
2022/02/21 10:05:48;;;;;;;12.40;3.30;;;7.70;99.90;;;;;;5011305;28;21186;-68
2022/02/21 10:08:16;;;;;;;11.73;2.90;;;7.80;99.90;;;;;;5011827;28;20516;-71
2022/02/21 10:10:43;;;;;;;12.53;2.20;;;7.80;99.90;;;;;;5011714;28;20537;-70
2022/02/21 10:13:10;;;;;;;10.80;3.03;;;7.60;99.90;;;;;;5011661;28;20453;-70
2022/02/21 10:15:38;;;;;;;12.20;2.97;;;7.60;99.90;;;;;;5011297;28;20525;-70
2022/02/21 10:18:13;;;;;;;5.53;1.83;;;7.60;99.90;;;;;;5011569;28;20823;-71
2022/02/21 10:20:54;;;;;;;7.50;2.40;;;7.70;99.90;;;;;;5010450;28;20476;-70
2022/02/21 10:23:22;;;;;;;6.17;2.10;;;7.80;99.90;;;;;;5011276;28;20489;-70
2022/02/21 10:25:56;;;;;;;5.50;2.33;;;8.00;99.90;;;;;;5011134;28;20462;-71
2022/02/21 10:28:29;;;;;;;5.90;2.43;;;8.10;99.90;;;;;;5011392;28;20508;-71
2022/02/21 10:31:09;;;;;;;7.50;1.83;;;8.40;99.90;;;;;;5011324;28;21015;-70
2022/02/21 10:33:36;;;;;;;5.43;1.70;;;8.50;99.90;;;;;;5011096;28;20450;-70
2022/02/21 10:36:03;;;;;;;8.20;1.70;;;8.40;99.90;;;;;;5011067;28;20496;-71
2022/02/21 10:38:41;;;;;;;5.30;1.60;;;8.40;99.90;;;;;;5011361;28;20493;-71
2022/02/21 10:41:09;;;;;;;5.20;1.80;;;8.40;99.90;;;;;;5011142;28;20959;-70
2022/02/21 10:43:36;;;;;;;5.00;2.33;;;8.40;99.90;;;;;;5010943;28;20448;-70
2022/02/21 10:46:13;;;;;;;4.30;2.03;;;8.40;99.90;;;;;;5010685;28;20553;-70
2022/02/21 10:48:44;;;;;;;8.93;2.90;;;8.10;99.90;;;;;;5011259;28;20873;-70
2022/02/21 10:51:11;;;;;;;4.83;2.00;;;8.00;99.90;;;;;;5011211;28;20442;-70
2022/02/21 10:53:40;;;;;;;7.83;2.40;;;8.00;99.90;;;;;;5010968;28;20450;-70
2022/02/21 10:56:11;;;;;;;5.27;1.57;;;7.90;99.90;;;;;;5010791;28;20496;-73
2022/02/21 10:58:38;;;;;;;6.40;1.57;;;8.00;99.90;;;;;;5010812;28;20450;-71
2022/02/21 11:01:05;;;;;;;8.13;1.53;;;8.10;99.90;;;;;;5011038;28;20450;-71
2022/02/21 11:03:33;;;;;;;3.40;1.33;;;8.10;99.90;;;;;;5010588;28;20472;-72
2022/02/21 11:06:01;;;;;;;4.50;1.70;;;8.20;99.90;;;;;;5010415;28;20610;-72
2022/02/21 11:08:30;;;;;;;4.00;1.43;;;8.20;99.90;;;;;;5011059;28;20446;-72
2022/02/21 11:11:00;;;;;;;5.60;1.53;;;8.20;99.90;;;;;;5010814;28;20537;-72
2022/02/21 11:13:29;;;;;;;8.50;2.93;;;8.40;99.90;;;;;;5010796;28;20446;-72
2022/02/21 11:15:57;;;;;;;4.83;2.00;;;8.40;99.90;;;;;;5010397;28;20493;-72
2022/02/21 11:18:24;;;;;;;7.40;2.03;;;8.30;99.90;;;;;;5010940;28;20877;-71
2022/02/21 11:20:52;;;;;;;7.73;2.10;;;8.20;99.90;;;;;;5010825;28;20449;-72
2022/02/21 11:23:18;;;;;;;7.97;2.13;;;8.20;99.90;;;;;;5010639;28;20537;-74
2022/02/21 11:25:51;;;;;;;6.13;2.23;;;8.20;99.90;;;;;;5010563;28;20465;-71
2022/02/21 11:28:23;;;;;;;7.43;2.70;;;8.10;99.90;;;;;;5010483;28;21054;-71
2022/02/21 11:30:57;;;;;;;3.60;1.50;;;8.00;99.90;;;;;;5010263;28;20460;-72
2022/02/21 11:33:24;;;;;;;8.10;3.07;;;7.90;99.90;;;;;;5010343;28;20542;-72
2022/02/21 11:36:03;;;;;;;5.37;1.70;;;7.70;99.90;;;;;;5009839;28;20494;-71
2022/02/21 11:38:33;;;;;;;2.90;1.43;;;7.50;99.90;;;;;;5010376;28;20462;-72
2022/02/21 11:41:02;;;;;;;3.47;1.53;;;7.20;99.90;;;;;;5010051;28;20541;-72
2022/02/21 11:43:34;;;;;;;4.43;1.03;;;6.90;99.90;;;;;;5010306;28;20450;-73
2022/02/21 11:46:07;;;;;;;5.93;1.20;;;6.90;99.90;;;;;;5009921;28;20497;-71
2022/02/21 11:48:54;;;;;;;6.03;1.33;;;7.00;99.90;;;;;;5010010;28;20446;-72
2022/02/21 11:51:32;;;;;;;2.90;1.27;;;7.10;99.90;;;;;;5010016;28;20990;-72
2022/02/21 11:54:36;;;;;;;2.67;1.40;;;7.20;99.90;;;;;;5010074;28;20489;-73
2022/02/21 11:57:07;;;;;;;4.53;1.63;;;7.40;99.90;;;;;;5009809;28;20445;-73
2022/02/21 11:59:35;;;;;;;8.13;1.97;;;7.60;99.90;;;;;;5010148;28;20453;-72
2022/02/21 12:02:05;;;;;;;4.10;1.50;;;7.70;99.90;;;;;;5009905;28;20989;-72
2022/02/21 12:04:48;;;;;;;6.03;2.20;;;7.80;99.90;;;;;;5009591;28;20446;-72
2022/02/21 12:07:32;;;;;;;7.70;1.60;;;8.00;99.90;;;;;;5009966;28;20449;-72
2022/02/21 12:10:14;;;;;;;6.10;1.83;;;8.10;99.90;;;;;;5009933;28;20454;-71
2022/02/21 12:13:11;;;;;;;4.60;1.30;;;8.30;99.90;;;;;;5010078;28;21022;-71
2022/02/21 12:15:38;;;;;;;5.53;1.87;;;8.40;99.90;;;;;;4996881;28;20902;-71
2022/02/21 12:18:44;;;;;;;7.10;2.00;;;8.50;99.90;;;;;;5009609;28;20449;-73
2022/02/21 12:21:15;;;;;;;5.10;1.70;;;8.60;99.90;;;;;;5009867;28;20481;-71
2022/02/21 12:24:05;;;;;;;5.10;1.93;;;8.70;99.90;;;;;;5011108;28;20458;-72
2022/02/21 12:26:35;;;;;;;9.30;2.00;;;8.70;99.90;;;;;;5018666;28;20565;-72
2022/02/21 12:29:16;;;;;;;5.23;1.43;;;8.80;99.90;;;;;;5025758;28;20488;-72
2022/02/21 12:31:45;;;;;;;5.87;1.70;;;8.70;99.90;;;;;;5029243;28;20535;-70
2022/02/21 12:34:13;;;;;;;6.63;1.60;;;8.60;99.90;;;;;;5029107;28;20487;-72
2022/02/21 12:36:44;;;;;;;3.17;1.40;;;8.40;99.90;;;;;;5029091;28;20931;-72
2022/02/21 12:39:14;;;;;;;6.40;1.50;;;8.40;99.90;;;;;;5020032;28;21016;-71
2022/02/21 12:41:43;;;;;;;5.20;2.20;;;8.60;99.90;;;;;;5008095;28;20553;-71
2022/02/21 12:44:11;;;;;;;5.53;1.33;;;8.60;99.90;;;;;;5013013;28;20450;-72
2022/02/21 12:46:39;;;;;;;7.90;1.67;;;8.50;99.90;;;;;;5014011;28;20811;-71
2022/02/21 12:49:09;;;;;;;7.77;2.13;;;8.40;99.90;;;;;;5013074;28;20476;-73
2022/02/21 12:51:38;;;;;;;8.23;2.30;;;8.30;99.90;;;;;;5013467;28;20457;-72
2022/02/21 12:54:09;;;;;;;6.63;1.60;;;8.20;99.90;;;;;;5013007;28;20547;-73
2022/02/21 12:56:47;;;;;;;3.27;1.70;;;8.20;99.90;;;;;;5013292;28;20581;-71
2022/02/21 12:59:15;;;;;;;3.10;1.27;;;8.20;99.90;;;;;;5013430;28;20536;-71